Nearby METAR Reports

 

KSJC - San Jose, California, USA
Distance from station: NE 9mi, 14km
Updated: 10/18/2017 1:53pm
Haze, Few clouds
Haze, Few clouds
 Wind from calm
Wind: Calm
Temperature: 61°F , 16°C
Dew Point: 52°F , 11°C
Humidity: 72%
Barometer: 30.08 inHg , 1018.6 hPa
Summary: Haze
Clouds: Few Clouds
Visibility: 3 miles , 5 km
Cloud details: Few Clouds 10000 ft
2017/10/18 17:53 KSJC 181753Z 00000KT 3SM HZ FEW100 16/11 A3008 RMK AO2 SLP185 T01610106 10161 20106 50009
KNUQ - Moffett Nas/Mtn, California, USA
Distance from station: N 9mi, 14km
Updated: 10/18/2017 1:56pm
Haze, Clear
Haze, Clear
 Wind from N
Wind: N 5 mph , 7 km/h
Temperature: 61°F , 16°C
Dew Point: 52°F , 11°C
Humidity: 72%
Barometer: 30.09 inHg , 1019 hPa
Summary: Haze
Clouds: Clear
Visibility: 4 miles , 6 km
2017/10/18 17:56 KNUQ 181756Z 01004KT 4SM HZ CLR 16/11 A3009 RMK AO2 SLP190 T01560106 10156 20111 50007
 
KPAO - Palo Alto, California, USA
Distance from station: NNW 14mi, 23km
Updated: 10/18/2017 1:47pm
Mist, Partly cloudy
Mist, Partly cloudy
 Wind from N
Wind: N 7 mph , 11 km/h
Temperature: 57°F , 14°C
Barometer: 30.09 inHg , 1019 hPa
Summary: Mist
Clouds: Partly cloudy
Visibility: 3 miles , 5 km
Cloud details: Partly cloudy 600 ft
2017/10/18 17:47 KPAO 181747Z 35006KT 3SM BR SCT006 14/ A3009
KRHV - San Jose/Reid, California, USA
Distance from station: ENE 12mi, 19km
Updated: 10/18/2017 1:47pm
Haze, Partly cloudy
Haze, Partly cloudy
 Wind from varies
Wind: varies 5 mph , 7 km/h
Temperature: 63°F , 17°C
Dew Point: 50°F , 10°C
Humidity: 64%
Barometer: 30.12 inHg , 1020 hPa
Summary: Haze
Clouds: Partly cloudy
Visibility: 4 miles , 6 km
Cloud details: Partly cloudy 1000 ft
2017/10/18 17:47 KRHV 181747Z VRB04KT 4SM HZ SCT010 17/10 A3012
 
KOAK - Oakland, California, USA
Distance from station: NNW 31mi, 50km
Updated: 10/18/2017 1:53pm
Mist, Partly cloudy
Mist, Partly cloudy
 Wind from varies
Wind: varies 3 mph , 6 km/h
Temperature: 55°F , 13°C
Dew Point: 52°F , 11°C
Humidity: 88%
Barometer: 30.09 inHg , 1019 hPa
Summary: Mist
Clouds: Partly cloudy
Visibility: 4 miles , 6 km
Cloud details: Partly cloudy 800 ft
2017/10/18 17:53 KOAK 181753Z VRB03KT 4SM BR SCT008 13/11 A3009 RMK AO2 SLP188 T01280111 10133 20056 51010
KSQL - San Carlos Airpo, California, USA
Distance from station: NW 21mi, 34km
Updated: 10/18/2017 1:47pm
Mist, Overcast
Mist, Overcast
 Wind from calm
Wind: Calm
Temperature: 52°F , 11°C
Dew Point: 50°F , 10°C
Humidity: 94%
Barometer: 30.10 inHg , 1019.3 hPa
Summary: Mist
Clouds: Overcast
Visibility: 2 miles , 3 km
Cloud details: Overcast 400 ft
2017/10/18 17:47 KSQL 181747Z 00000KT 2SM BR OVC004 11/10 A3010
 
KSFO - San Francisco, California, USA
Distance from station: NW 30mi, 49km
Updated: 10/18/2017 1:56pm
Haze, Few clouds
Haze, Few clouds
 Wind from E
Wind: E 3 mph , 6 km/h
Temperature: 55°F , 13°C
Dew Point: 50°F , 10°C
Humidity: 82%
Barometer: 30.08 inHg , 1018.6 hPa
Summary: Haze
Clouds: Few Clouds
Visibility: 6 miles , 10 km
Cloud details: Few Clouds 1000 ft
2017/10/18 17:56 KSFO 181756Z 09003KT 6SM HZ FEW010 13/10 A3008 RMK AO2 SLP186 T01330100 10133 20089 50008
KE16 - San Martin, California, USA
Distance from station: ESE 27mi, 43km
Updated: 10/18/2017 1:55pm
Clear
Clear
 Wind from calm
Wind: Calm
Temperature: 61°F , 16°C
Dew Point: 43°F , 6°C
Humidity: 52%
Barometer: 30.09 inHg , 1019 hPa
Clouds: Clear
Visibility: 9 miles , 14 km
2017/10/18 17:55 KE16 181755Z AUTO 00000KT 9SM CLR 16/06 A3009 RMK AO2
 
KWVI - Watsonville, California, USA
Distance from station: SSE 27mi, 44km
Updated: 10/12/2017 12:53pm
NOT Current
Clear
Clear
 Wind from E
Wind: E 3 mph , 6 km/h
Temperature: 57°F , 14°C
Dew Point: 39°F , 4°C
Humidity: 51%
Barometer: 30.11 inHg , 1019.6 hPa
Clouds: Clear
Visibility: 8 miles , 13 km
2017/10/12 16:53 KWVI 121653Z AUTO 09003KT 8SM CLR 14/04 A3011 RMK AO2 SLP194 T01440039 $
KHAF - Half Moon Bay, California, USA
Distance from station: WNW 31mi, 50km
Updated: 10/18/2017 1:55pm
Overcast
Overcast
 Wind from W
Wind: W 6 mph , 9 km/h
Temperature: 54°F , 12°C
Dew Point: 50°F , 10°C
Humidity: 88%
Barometer: 30.06 inHg , 1017.9 hPa
Clouds: Overcast
Visibility: 8 miles , 13 km
Cloud details: Overcast 600 ft
2017/10/18 17:55 KHAF 181755Z AUTO 28005KT 8SM OVC006 12/10 A3006 RMK AO2
 
KHWD - Hayward, California, USA
Distance from station: N 28mi, 44km
Updated: 10/18/2017 2:09pm
Haze, Partly cloudy
Haze, Partly cloudy
 Wind from calm
Wind: Calm
Temperature: 55°F , 13°C
Dew Point: 48°F , 9°C
Humidity: 77%
Barometer: 30.08 inHg , 1018.6 hPa
Summary: Haze
Clouds: Partly cloudy
Visibility: 3 miles , 5 km
Cloud details: Partly cloudy 700 ft
2017/10/18 18:09 KHWD 181809Z 00000KT 3SM HZ SCT007 13/09 A3008 RMK AO2 T01330089
KLVK - Livermore, California, USA
Distance from station: NNE 31mi, 51km
Updated: 10/18/2017 1:53pm
Smoke, Clear
Smoke, Clear
 Wind from NW
Wind: NW 3 mph , 6 km/h
Temperature: 64°F , 18°C
Dew Point: 34°F , 1°C
Humidity: 32%
Barometer: 30.06 inHg , 1017.9 hPa
Summary: Smoke
Clouds: Clear
Visibility: 7 miles , 11 km
2017/10/18 17:53 KLVK 181753Z 31003KT 7SM FU CLR 18/01 A3006 RMK AO2 SLP176 T01830011 10183 20067 50006